Aérodrome :
LOGIN :

S'inscrire | Disclaimer

   EN    FR    IT 

 










Légende :    VFR   VFR Marginal   IFR   IFR Intensif   IFR Très Intensif
Visi : 
Plafond : 
>= 8 km
>= 3000ft
5 à 8 km
1000 à 3000 ft
1500m à 5 km
500 à 1000 ft
800 à 1500m
200 à 500 ft
< 800m
< 200 ft
Symboles :   Orages  Brouillard  Fortes neiges  Fortes précipitations  Vent > 20 kt
SIGMETs :   Divers  Orages  Givrage  Turbulence  Onde Orograph.  Cendres Volcan.






- Altitude de l'aérodrome : 776 ft
- Code IATA : RMS


ETAR - Ramstein Air Base

DERNIER METAR :
  • 281756Z AUTO 33010KT 9999 CLR 14/02 A3004 RMK AO2 SLP182 T01410020 10182 20137 53006 FZRANO $

METARs EXPIRÉS :
  • 281656Z AUTO 01008KT 9999 CLR 16/01 A3001 RMK AO2 SLP171 T01640013 FZRANO
  • 281556Z AUTO 36010KT 9999 CLR 18/03 A3001 RMK AO2 SLP170 T01750030 FZRANO
  • 281456Z AUTO 03012G16KT 9999 CLR 18/02 A3002 RMK AO2 SLP173 T01800023 57009 FZRANO $

TAF AMD TAF ETAR
Valide du 28 à 13h jusqu'au 29 à 16h UTC


281304Z 2813/2916 05010G15KT 9999 SKC QNH3004INS
TEMPO 2813/2817 05012G20KT 510004
BECMG 2816/2817 03009KT 9999 FEW100 QNH3006INS
BECMG 2819/2820 03012KT 9999 SCT040 QNH3011INS
BECMG 2911/2912 03012G20KT 9999 BKN040 620403 510004 QNH3014INS
TEMPO 2915/2916 8000 -SHRA BKN010 610106 TX18/2813Z TNM01/2906Z



MET'MAP, la Météo Aéronautique d'un coup d'oeil ! - Copyright ORBIFLY Décembre 2007 - Disclaimer

ORBIFLY MET'MAP TEAM :

Programmation & Développement : Alexandra Zaïnal
Sur une idée originale de : Baudouin d'Aumeries
Assistance à la programmation : Marc-Olivier Méhu
Soutien technique & logistique : Manuel Goepfert

Contact : metmap@orbifly.com




SOURCES & CREDITS :

   NOAA